Sousse, Tunisia
Current Conditions -  °F | °C
As of 10:00 PM on Sunday 21 Dec 2014 (Local Time) from DTMB Reporting Station
Scattered Clouds Scattered Clouds  
Wind Chill: 61°   Ceiling: Unl
Heat Index: 61°   Visibility: 6mi
Dew Point: 50°   Wind: 12mph
Humidity: 68%   Direction: 330°NNW
Pressure: 30.42"   Gusts: NA
Location:  35.82°N, 10.63°E
Report Text: DTMB 212100Z 33010KT 290V350 9999 SCT020 SCT026 16/10 Q1030 NOSIG
Loading
Personal Weather Stations






























Interactive Weather Map New forecast layout! Learn more

10-Day Weather Forecast

Advertisements
Track Severe Weather on mobile